createdAt,value
2019-04-30T00:00:25.783Z,968.98
2019-04-30T00:01:25.118Z,968.99
2019-04-30T00:02:27.808Z,968.93
2019-04-30T00:03:25.058Z,968.98
2019-04-30T00:04:25.375Z,968.97
2019-04-30T00:05:25.096Z,968.94
2019-04-30T00:06:27.395Z,968.92
2019-04-30T00:07:24.850Z,968.91
2019-04-30T00:08:25.589Z,968.95
2019-04-30T00:09:25.058Z,968.93
2019-04-30T00:10:29.553Z,968.92
2019-04-30T00:11:25.101Z,968.91
2019-04-30T00:12:23.366Z,968.90
2019-04-30T00:13:23.337Z,968.91
2019-04-30T00:14:25.037Z,968.89
2019-04-30T00:15:23.196Z,968.90
2019-04-30T00:16:25.157Z,968.90
2019-04-30T00:17:23.122Z,968.92
2019-04-30T00:18:23.031Z,968.90
2019-04-30T00:19:22.976Z,968.89
2019-04-30T00:20:22.969Z,968.89
2019-04-30T00:21:24.890Z,968.98
2019-04-30T00:22:33.085Z,968.93
2019-04-30T00:23:29.314Z,968.93
2019-04-30T00:24:22.706Z,968.97
2019-04-30T00:25:26.924Z,968.93
2019-04-30T00:26:22.600Z,968.99
2019-04-30T00:27:26.419Z,968.88
2019-04-30T00:28:22.486Z,968.94
2019-04-30T00:29:26.675Z,968.86
2019-04-30T00:30:22.412Z,968.93
2019-04-30T00:31:23.777Z,968.89
2019-04-30T00:32:22.272Z,968.91
2019-04-30T00:33:25.081Z,968.94
2019-04-30T00:34:22.165Z,968.87
2019-04-30T00:35:22.133Z,968.93
2019-04-30T00:36:22.057Z,968.92
2019-04-30T00:37:22.000Z,968.89
2019-04-30T00:38:21.945Z,968.91
2019-04-30T00:39:21.891Z,968.88
2019-04-30T00:40:26.012Z,968.88
2019-04-30T00:41:21.813Z,968.86
2019-04-30T00:42:24.198Z,968.88
2019-04-30T00:43:21.676Z,968.85
2019-04-30T00:44:24.896Z,968.84
2019-04-30T00:45:21.613Z,968.83
2019-04-30T00:46:25.515Z,968.83
2019-04-30T00:47:21.465Z,968.84
2019-04-30T00:48:27.856Z,968.82
2019-04-30T00:49:23.140Z,968.81
2019-04-30T00:50:21.327Z,968.84
2019-04-30T00:51:21.599Z,968.81
2019-04-30T00:52:21.189Z,968.79
2019-04-30T00:53:21.133Z,968.80
2019-04-30T00:54:22.404Z,968.78
2019-04-30T00:55:21.025Z,968.82
2019-04-30T00:56:24.763Z,968.81
2019-04-30T00:57:20.922Z,968.77
2019-04-30T00:58:25.850Z,968.76
2019-04-30T00:59:20.808Z,968.76
2019-04-30T01:00:28.062Z,968.75
2019-04-30T01:01:20.732Z,968.78
2019-04-30T01:02:29.098Z,968.74
2019-04-30T01:03:20.589Z,968.75
2019-04-30T01:04:24.692Z,968.77
2019-04-30T01:05:20.485Z,968.77
2019-04-30T01:06:26.776Z,968.74
2019-04-30T01:07:20.409Z,968.77
2019-04-30T01:08:21.180Z,968.76
2019-04-30T01:09:20.264Z,968.70
2019-04-30T01:10:24.839Z,968.75
2019-04-30T01:11:20.155Z,968.72
2019-04-30T01:12:27.791Z,968.71
2019-04-30T01:13:20.080Z,968.70
2019-04-30T01:14:23.261Z,968.70
2019-04-30T01:15:19.941Z,968.70
2019-04-30T01:16:23.567Z,968.67
2019-04-30T01:17:19.834Z,968.67
2019-04-30T01:18:23.542Z,968.66
2019-04-30T01:19:29.747Z,968.71
2019-04-30T01:20:19.672Z,968.67
2019-04-30T01:21:19.613Z,968.66
2019-04-30T01:22:27.857Z,968.66
2019-04-30T01:23:19.609Z,968.63
2019-04-30T01:24:23.419Z,968.65
2019-04-30T01:25:20.712Z,968.62
2019-04-30T01:26:22.855Z,968.61
2019-04-30T01:27:19.322Z,968.59
2019-04-30T01:28:22.888Z,968.62
2019-04-30T01:29:19.375Z,968.64
2019-04-30T01:30:22.766Z,968.60
2019-04-30T01:31:21.063Z,968.65
2019-04-30T01:32:20.901Z,968.61
2019-04-30T01:33:19.216Z,968.61
2019-04-30T01:34:19.575Z,968.59
2019-04-30T01:35:19.239Z,968.58
2019-04-30T01:36:19.312Z,968.61
2019-04-30T01:37:24.633Z,968.61
2019-04-30T01:38:18.993Z,968.61
2019-04-30T01:39:19.561Z,968.58
2019-04-30T01:40:19.044Z,968.59
2019-04-30T01:41:20.282Z,968.57
2019-04-30T01:42:18.598Z,968.57
2019-04-30T01:43:23.142Z,968.59
2019-04-30T01:44:19.539Z,968.54
2019-04-30T01:45:18.745Z,968.54
2019-04-30T01:46:19.238Z,968.52
2019-04-30T01:47:21.454Z,968.52
2019-04-30T01:48:19.384Z,968.52
2019-04-30T01:49:19.981Z,968.53
2019-04-30T01:50:19.400Z,968.55
2019-04-30T01:51:21.692Z,968.53
2019-04-30T01:52:19.396Z,968.54
2019-04-30T01:53:18.645Z,968.48
2019-04-30T01:54:23.893Z,968.54
2019-04-30T01:55:19.622Z,968.56
2019-04-30T01:56:19.167Z,968.51
2019-04-30T01:57:19.267Z,968.54
2019-04-30T01:58:19.310Z,968.53
2019-04-30T01:59:19.041Z,968.57
2019-04-30T02:00:19.444Z,968.55
2019-04-30T02:01:19.005Z,968.57
2019-04-30T02:02:18.535Z,968.52
2019-04-30T02:03:19.200Z,968.54
2019-04-30T02:04:17.281Z,968.58
2019-04-30T02:05:18.875Z,968.55
2019-04-30T02:06:17.211Z,968.59
2019-04-30T02:07:18.976Z,968.54
2019-04-30T02:08:17.064Z,968.51
2019-04-30T02:09:18.887Z,968.54
2019-04-30T02:10:18.646Z,968.51
2019-04-30T02:11:18.824Z,968.51
2019-04-30T02:12:16.846Z,968.49
2019-04-30T02:13:18.774Z,968.54
2019-04-30T02:14:16.735Z,968.52
2019-04-30T02:15:16.696Z,968.55
2019-04-30T02:16:18.700Z,968.52
2019-04-30T02:17:16.576Z,968.52
2019-04-30T02:18:16.519Z,968.53
2019-04-30T02:19:16.497Z,968.53
2019-04-30T02:20:16.408Z,968.52
2019-04-30T02:21:16.356Z,968.53
2019-04-30T02:22:16.302Z,968.58
2019-04-30T02:23:16.279Z,968.56
2019-04-30T02:24:16.190Z,968.53
2019-04-30T02:25:16.138Z,968.57
2019-04-30T02:26:16.091Z,968.50
2019-04-30T02:27:16.033Z,968.51
2019-04-30T02:28:16.009Z,968.48
2019-04-30T02:29:15.919Z,968.46
2019-04-30T02:30:15.888Z,968.48
2019-04-30T02:31:15.821Z,968.48
2019-04-30T02:32:15.782Z,968.44
2019-04-30T02:33:15.701Z,968.48
2019-04-30T02:34:15.648Z,968.45
2019-04-30T02:35:15.596Z,968.42
2019-04-30T02:36:15.543Z,968.45
2019-04-30T02:37:15.522Z,968.46
2019-04-30T02:38:15.434Z,968.42
2019-04-30T02:39:15.421Z,968.45
2019-04-30T02:40:15.321Z,968.42
2019-04-30T02:41:15.267Z,968.45
2019-04-30T02:42:15.212Z,968.39
2019-04-30T02:43:15.157Z,968.38
2019-04-30T02:44:15.137Z,968.37
2019-04-30T02:45:15.048Z,968.41
2019-04-30T02:46:14.995Z,968.38
2019-04-30T02:47:14.963Z,968.33
2019-04-30T02:48:14.883Z,968.36
2019-04-30T02:49:14.827Z,968.33
2019-04-30T02:50:18.638Z,968.32
2019-04-30T02:51:14.718Z,968.33
2019-04-30T02:52:14.668Z,968.31
2019-04-30T02:53:14.610Z,968.30
2019-04-30T02:54:14.596Z,968.29
2019-04-30T02:55:14.501Z,968.32
2019-04-30T02:56:14.449Z,968.32
2019-04-30T02:57:14.401Z,968.32
2019-04-30T02:58:14.339Z,968.29
2019-04-30T02:59:14.323Z,968.28
2019-04-30T03:00:14.236Z,968.29
2019-04-30T03:01:14.170Z,968.27
2019-04-30T03:02:14.119Z,968.26
2019-04-30T03:03:14.064Z,968.27
2019-04-30T03:04:14.044Z,968.29
2019-04-30T03:05:14.106Z,968.29
2019-04-30T03:06:13.901Z,968.22
2019-04-30T03:07:13.846Z,968.23
2019-04-30T03:08:13.831Z,968.18
2019-04-30T03:09:13.737Z,968.21
2019-04-30T03:10:13.683Z,968.22
2019-04-30T03:11:13.626Z,968.28
2019-04-30T03:12:13.570Z,968.24
2019-04-30T03:13:13.549Z,968.22
2019-04-30T03:14:13.463Z,968.25
2019-04-30T03:15:13.409Z,968.26
2019-04-30T03:16:13.356Z,968.24
2019-04-30T03:17:13.324Z,968.23
2019-04-30T03:18:13.246Z,968.24
2019-04-30T03:19:13.195Z,968.22
2019-04-30T03:20:27.714Z,968.20
2019-04-30T03:21:13.092Z,968.17
2019-04-30T03:22:13.026Z,968.17
2019-04-30T03:23:12.979Z,968.18
2019-04-30T03:24:12.926Z,968.19
2019-04-30T03:25:12.890Z,968.14
2019-04-30T03:26:13.087Z,968.17
2019-04-30T03:27:12.784Z,968.17
2019-04-30T03:28:12.699Z,968.14
2019-04-30T03:29:12.639Z,968.18
2019-04-30T03:30:12.657Z,968.15
2019-04-30T03:31:12.805Z,968.13
2019-04-30T03:32:14.148Z,968.17
2019-04-30T03:33:13.309Z,968.14
2019-04-30T03:34:19.564Z,968.17
2019-04-30T03:35:13.276Z,968.17
2019-04-30T03:36:13.045Z,968.14
2019-04-30T03:37:12.237Z,968.15
2019-04-30T03:38:12.148Z,968.12
2019-04-30T03:39:12.093Z,968.12
2019-04-30T03:40:13.181Z,968.12
2019-04-30T03:41:11.982Z,968.12
2019-04-30T03:42:11.961Z,968.14
2019-04-30T03:43:11.910Z,968.13
2019-04-30T03:44:21.427Z,968.11
2019-04-30T03:45:11.763Z,968.13
2019-04-30T03:46:11.707Z,968.12
2019-04-30T03:47:11.671Z,968.10
2019-04-30T03:48:11.641Z,968.11
2019-04-30T03:49:13.445Z,968.09
2019-04-30T03:50:11.487Z,968.14
2019-04-30T03:51:11.437Z,968.12
2019-04-30T03:52:13.398Z,968.11
2019-04-30T03:53:11.363Z,968.10
2019-04-30T03:54:11.301Z,968.09
2019-04-30T03:55:11.214Z,968.07
2019-04-30T03:56:11.157Z,968.01
2019-04-30T03:57:11.116Z,968.04
2019-04-30T03:58:11.091Z,967.97
2019-04-30T03:59:11.047Z,967.98
2019-04-30T04:00:10.937Z,967.92
2019-04-30T04:01:10.882Z,967.94
2019-04-30T04:02:12.747Z,967.97
2019-04-30T04:03:10.816Z,967.97
2019-04-30T04:04:10.718Z,967.99
2019-04-30T04:05:10.663Z,967.96
2019-04-30T04:06:10.611Z,967.98
2019-04-30T04:07:10.553Z,967.99
2019-04-30T04:08:10.525Z,967.99
2019-04-30T04:09:10.492Z,968.00
2019-04-30T04:10:10.385Z,968.00
2019-04-30T04:11:10.332Z,968.05
2019-04-30T04:12:12.068Z,968.05
2019-04-30T04:13:10.474Z,968.07
2019-04-30T04:14:10.165Z,968.04
2019-04-30T04:15:10.634Z,968.08
2019-04-30T04:16:10.050Z,968.07
2019-04-30T04:17:10.002Z,968.09
2019-04-30T04:18:10.708Z,968.06
2019-04-30T04:19:09.931Z,968.05
2019-04-30T04:20:10.656Z,968.05
2019-04-30T04:21:16.511Z,968.07
2019-04-30T04:22:12.240Z,968.02
2019-04-30T04:23:09.822Z,968.10
2019-04-30T04:24:10.595Z,968.07
2019-04-30T04:25:13.066Z,968.09
2019-04-30T04:26:09.659Z,968.11
2019-04-30T04:27:09.743Z,968.09
2019-04-30T04:28:10.107Z,968.10
2019-04-30T04:29:12.261Z,968.14
2019-04-30T04:30:10.620Z,968.11
2019-04-30T04:31:09.610Z,968.12
2019-04-30T04:32:10.660Z,968.16
2019-04-30T04:33:10.243Z,968.18
2019-04-30T04:34:09.412Z,968.25
2019-04-30T04:35:12.221Z,968.23
2019-04-30T04:36:09.243Z,968.21
2019-04-30T04:37:10.045Z,968.25
2019-04-30T04:38:12.276Z,968.31
2019-04-30T04:39:09.800Z,968.32
2019-04-30T04:40:09.401Z,968.30
2019-04-30T04:41:10.369Z,968.29
2019-04-30T04:42:10.138Z,968.31
2019-04-30T04:43:10.356Z,968.28
2019-04-30T04:44:12.610Z,968.25
2019-04-30T04:45:09.955Z,968.27
2019-04-30T04:46:09.287Z,968.30
2019-04-30T04:47:09.887Z,968.31
2019-04-30T04:48:09.536Z,968.33
2019-04-30T04:49:08.998Z,968.30
2019-04-30T04:50:10.294Z,968.30
2019-04-30T04:51:19.831Z,968.31
2019-04-30T04:52:10.192Z,968.31
2019-04-30T04:53:11.259Z,968.30
2019-04-30T04:54:10.341Z,968.29
2019-04-30T04:55:10.052Z,968.31
2019-04-30T04:56:09.887Z,968.30
2019-04-30T04:57:14.824Z,968.29
2019-04-30T04:58:09.686Z,968.28
2019-04-30T04:59:10.075Z,968.32
2019-04-30T05:00:10.438Z,968.34
2019-04-30T05:01:09.057Z,968.30
2019-04-30T05:02:09.492Z,968.31
2019-04-30T05:03:09.344Z,968.36
2019-04-30T05:04:11.481Z,968.33
2019-04-30T05:05:09.481Z,968.34
2019-04-30T05:06:11.369Z,968.33
2019-04-30T05:07:09.065Z,968.41
2019-04-30T05:08:08.883Z,968.40
2019-04-30T05:09:07.115Z,968.38
2019-04-30T05:10:09.040Z,968.43
2019-04-30T05:11:07.055Z,968.44
2019-04-30T05:12:08.523Z,968.44
2019-04-30T05:13:06.894Z,968.46
2019-04-30T05:14:08.376Z,968.48
2019-04-30T05:15:06.789Z,968.51
2019-04-30T05:16:06.777Z,968.51
2019-04-30T05:17:06.675Z,968.56
2019-04-30T05:18:06.618Z,968.54
2019-04-30T05:19:08.571Z,968.56
2019-04-30T05:20:06.507Z,968.56
2019-04-30T05:21:06.491Z,968.58
2019-04-30T05:22:06.396Z,968.59
2019-04-30T05:23:06.347Z,968.60
2019-04-30T05:24:06.290Z,968.65
2019-04-30T05:25:06.236Z,968.65
2019-04-30T05:26:06.207Z,968.62
2019-04-30T05:27:06.123Z,968.62
2019-04-30T05:28:06.073Z,968.66
2019-04-30T05:29:06.043Z,968.70
2019-04-30T05:30:05.955Z,968.68
2019-04-30T05:31:05.925Z,968.69
2019-04-30T05:32:05.843Z,968.68
2019-04-30T05:33:05.792Z,968.72
2019-04-30T05:34:06.430Z,968.68
2019-04-30T05:35:05.725Z,968.66
2019-04-30T05:36:05.623Z,968.68
2019-04-30T05:37:05.568Z,968.69
2019-04-30T05:38:05.516Z,968.68
2019-04-30T05:39:05.460Z,968.72
2019-04-30T05:40:05.438Z,968.72
2019-04-30T05:41:05.349Z,968.73
2019-04-30T05:42:05.292Z,968.75
2019-04-30T05:43:05.240Z,968.76
2019-04-30T05:44:05.217Z,968.77
2019-04-30T05:45:05.130Z,968.76
2019-04-30T05:46:05.074Z,968.74
2019-04-30T05:47:05.021Z,968.79
2019-04-30T05:48:04.963Z,968.75
2019-04-30T05:49:04.940Z,968.75
2019-04-30T05:50:04.865Z,968.74
2019-04-30T05:51:04.800Z,968.78
2019-04-30T05:52:04.745Z,968.77
2019-04-30T05:53:04.691Z,968.74
2019-04-30T05:54:04.670Z,968.81
2019-04-30T05:55:04.583Z,968.80
2019-04-30T05:56:04.560Z,968.78
2019-04-30T05:57:04.472Z,968.77
2019-04-30T05:58:04.417Z,968.78
2019-04-30T05:59:04.368Z,968.75
2019-04-30T06:00:04.349Z,968.78
2019-04-30T06:01:04.256Z,968.79
2019-04-30T06:02:04.199Z,968.82
2019-04-30T06:03:04.143Z,968.84
2019-04-30T06:04:04.088Z,968.82
2019-04-30T06:05:04.097Z,968.87
2019-04-30T06:06:03.980Z,968.89
2019-04-30T06:07:03.926Z,968.87
2019-04-30T06:08:03.875Z,968.87
2019-04-30T06:09:06.689Z,968.91
2019-04-30T06:10:03.791Z,968.92
2019-04-30T06:11:03.710Z,968.97
2019-04-30T06:12:03.649Z,968.95
2019-04-30T06:13:03.597Z,968.94
2019-04-30T06:14:03.578Z,968.96
2019-04-30T06:15:03.488Z,968.96
2019-04-30T06:16:03.470Z,968.98
2019-04-30T06:17:03.386Z,968.96
2019-04-30T06:18:11.514Z,968.96
2019-04-30T06:19:03.268Z,968.96
2019-04-30T06:20:03.211Z,968.94
2019-04-30T06:21:03.162Z,968.95
2019-04-30T06:22:07.501Z,968.89
2019-04-30T06:23:03.052Z,968.96
2019-04-30T06:24:02.997Z,968.95
2019-04-30T06:25:02.948Z,968.94
2019-04-30T06:26:09.618Z,968.91
2019-04-30T06:27:02.865Z,968.99
2019-04-30T06:28:02.820Z,968.97
2019-04-30T06:29:02.726Z,969.01
2019-04-30T06:30:02.669Z,969.01
2019-04-30T06:31:02.617Z,969.03
2019-04-30T06:32:02.559Z,968.98
2019-04-30T06:33:02.544Z,969.00
2019-04-30T06:34:02.455Z,969.04
2019-04-30T06:35:02.397Z,969.04
2019-04-30T06:36:02.348Z,969.10
2019-04-30T06:37:02.290Z,969.08
2019-04-30T06:38:02.276Z,969.04
2019-04-30T06:39:02.180Z,969.09
2019-04-30T06:40:02.125Z,969.03
2019-04-30T06:41:02.070Z,969.00
2019-04-30T06:42:06.492Z,969.10
2019-04-30T06:43:01.997Z,969.13
2019-04-30T06:44:01.908Z,969.07
2019-04-30T06:45:01.862Z,969.10
2019-04-30T06:46:01.803Z,969.12
2019-04-30T06:47:01.754Z,969.08
2019-04-30T06:48:01.719Z,969.12
2019-04-30T06:49:01.643Z,969.09
2019-04-30T06:50:01.598Z,969.16
2019-04-30T06:51:01.570Z,969.17
2019-04-30T06:52:01.485Z,969.17
2019-04-30T06:53:01.776Z,969.16
2019-04-30T06:54:01.370Z,969.13
2019-04-30T06:55:01.318Z,969.19
2019-04-30T06:56:01.294Z,969.17
2019-04-30T06:57:01.216Z,969.18
2019-04-30T06:58:11.993Z,969.16
2019-04-30T06:59:01.132Z,969.21
2019-04-30T07:00:01.072Z,969.21
2019-04-30T07:01:00.993Z,969.23
2019-04-30T07:02:00.941Z,969.24
2019-04-30T07:03:00.923Z,969.26
2019-04-30T07:04:01.098Z,969.24
2019-04-30T07:05:00.813Z,969.23
2019-04-30T07:06:00.959Z,969.21
2019-04-30T07:07:00.673Z,969.24
2019-04-30T07:08:07.145Z,969.21
2019-04-30T07:09:00.567Z,969.19
2019-04-30T07:10:01.250Z,969.20
2019-04-30T07:11:07.399Z,969.17
2019-04-30T07:12:00.439Z,969.22
2019-04-30T07:13:00.349Z,969.19
2019-04-30T07:14:00.300Z,969.18
2019-04-30T07:15:00.278Z,969.22
2019-04-30T07:16:00.188Z,969.14
2019-04-30T07:17:00.156Z,969.16
2019-04-30T07:18:00.125Z,969.18
2019-04-30T07:19:00.027Z,969.19
2019-04-30T07:19:59.974Z,969.19
2019-04-30T07:20:59.927Z,969.21
2019-04-30T07:21:59.867Z,969.14
2019-04-30T07:23:03.066Z,969.23
2019-04-30T07:23:59.792Z,969.22
2019-04-30T07:24:59.763Z,969.23
2019-04-30T07:25:59.653Z,969.23
2019-04-30T07:27:02.660Z,969.23
2019-04-30T07:27:59.948Z,969.22
2019-04-30T07:29:02.442Z,969.21
2019-04-30T07:29:59.639Z,969.23
2019-04-30T07:31:10.228Z,969.26
2019-04-30T07:31:59.334Z,969.28
2019-04-30T07:32:59.675Z,969.31
2019-04-30T07:33:59.586Z,969.36
2019-04-30T07:34:59.515Z,969.33
2019-04-30T07:36:01.562Z,969.30
2019-04-30T07:37:13.418Z,969.31
2019-04-30T07:38:00.602Z,969.31
2019-04-30T07:38:59.886Z,969.31
2019-04-30T07:39:59.092Z,969.29
2019-04-30T07:40:59.213Z,969.37
2019-04-30T07:41:59.915Z,969.33
2019-04-30T07:42:59.181Z,969.34
2019-04-30T07:43:59.337Z,969.32
2019-04-30T07:45:00.669Z,969.34
2019-04-30T07:45:59.798Z,969.34
2019-04-30T07:46:59.348Z,969.31
2019-04-30T07:47:59.424Z,969.35
2019-04-30T07:48:59.996Z,969.35
2019-04-30T07:50:00.685Z,969.30
2019-04-30T07:50:59.189Z,969.30
2019-04-30T07:52:00.793Z,969.29
2019-04-30T07:53:05.230Z,969.34
2019-04-30T07:53:59.043Z,969.37
2019-04-30T07:55:00.659Z,969.37
2019-04-30T07:55:58.853Z,969.33
2019-04-30T07:57:00.355Z,969.31
2019-04-30T07:57:59.188Z,969.35
2019-04-30T07:59:00.700Z,969.35
2019-04-30T07:59:59.687Z,969.36
2019-04-30T08:00:59.329Z,969.36
2019-04-30T08:02:07.563Z,969.36
2019-04-30T08:02:59.956Z,969.40
2019-04-30T08:03:58.996Z,969.40
2019-04-30T08:04:59.757Z,969.38
2019-04-30T08:05:59.559Z,969.45
2019-04-30T08:06:59.557Z,969.41
2019-04-30T08:08:15.860Z,969.43
2019-04-30T08:09:00.401Z,969.44
2019-04-30T08:09:59.007Z,969.46
2019-04-30T08:10:58.872Z,969.52
2019-04-30T08:11:58.930Z,969.47
2019-04-30T08:13:08.388Z,969.48
2019-04-30T08:13:59.012Z,969.50
2019-04-30T08:14:59.322Z,969.44
2019-04-30T08:15:57.010Z,969.50
2019-04-30T08:16:58.934Z,969.56
2019-04-30T08:18:03.594Z,969.53
2019-04-30T08:18:56.855Z,969.60
2019-04-30T08:19:58.768Z,969.56
2019-04-30T08:20:59.032Z,969.57
2019-04-30T08:21:58.532Z,969.56
2019-04-30T08:22:56.655Z,969.55
2019-04-30T08:23:56.602Z,969.59
2019-04-30T08:24:58.569Z,969.61
2019-04-30T08:25:56.500Z,969.55
2019-04-30T08:26:56.487Z,969.53
2019-04-30T08:27:56.398Z,969.57
2019-04-30T08:28:56.347Z,969.53
2019-04-30T08:29:56.300Z,969.56
2019-04-30T08:30:56.259Z,969.59
2019-04-30T08:31:56.228Z,969.57
2019-04-30T08:32:56.155Z,969.59
2019-04-30T08:33:56.096Z,969.58
2019-04-30T08:34:56.047Z,969.61
2019-04-30T08:35:56.031Z,969.61
2019-04-30T08:36:56.335Z,969.65
2019-04-30T08:37:55.897Z,969.66
2019-04-30T08:38:55.846Z,969.66
2019-04-30T08:39:55.797Z,969.67
2019-04-30T08:40:58.265Z,969.70
2019-04-30T08:41:55.706Z,969.70
2019-04-30T08:42:55.649Z,969.72
2019-04-30T08:43:55.600Z,969.71
2019-04-30T08:44:55.552Z,969.73
2019-04-30T08:45:55.534Z,969.67
2019-04-30T08:46:55.454Z,969.69
2019-04-30T08:47:55.404Z,969.66
2019-04-30T08:48:55.363Z,969.67
2019-04-30T08:49:55.380Z,969.66
2019-04-30T08:50:55.307Z,969.72
2019-04-30T08:51:55.208Z,969.73
2019-04-30T08:52:55.166Z,969.69
2019-04-30T08:53:55.113Z,969.73
2019-04-30T08:54:55.066Z,969.73
2019-04-30T08:55:55.051Z,969.76
2019-04-30T08:56:54.968Z,969.70
2019-04-30T08:58:07.547Z,969.76
2019-04-30T08:58:55.008Z,969.74
2019-04-30T08:59:54.826Z,969.68
2019-04-30T09:00:54.772Z,969.72
2019-04-30T09:01:54.724Z,969.74
2019-04-30T09:02:54.679Z,969.75
2019-04-30T09:03:54.676Z,969.73
2019-04-30T09:04:54.581Z,969.69
2019-04-30T09:05:54.539Z,969.72
2019-04-30T09:06:54.487Z,969.69
2019-04-30T09:07:54.440Z,969.71
2019-04-30T09:08:54.422Z,969.73
2019-04-30T09:09:54.344Z,969.72
2019-04-30T09:10:54.297Z,969.66
2019-04-30T09:11:55.756Z,969.68
2019-04-30T09:12:54.202Z,969.66
2019-04-30T09:13:54.188Z,969.70
2019-04-30T09:14:54.112Z,969.69
2019-04-30T09:15:54.060Z,969.64
2019-04-30T09:16:54.014Z,969.65
2019-04-30T09:18:03.147Z,969.66
2019-04-30T09:18:53.952Z,969.68
2019-04-30T09:19:53.873Z,969.71
2019-04-30T09:20:53.827Z,969.78
2019-04-30T09:21:53.814Z,969.74
2019-04-30T09:22:53.732Z,969.76
2019-04-30T09:23:53.688Z,969.75
2019-04-30T09:24:53.678Z,969.76
2019-04-30T09:25:53.632Z,969.70
2019-04-30T09:26:53.552Z,969.71
2019-04-30T09:27:53.500Z,969.74
2019-04-30T09:28:53.451Z,969.76
2019-04-30T09:29:53.407Z,969.74
2019-04-30T09:30:53.392Z,969.73
2019-04-30T09:31:53.314Z,969.74
2019-04-30T09:32:53.271Z,969.70
2019-04-30T09:33:53.223Z,969.70
2019-04-30T09:34:53.213Z,969.66
2019-04-30T09:35:53.128Z,969.70
2019-04-30T09:36:53.083Z,969.70
2019-04-30T09:37:59.075Z,969.73
2019-04-30T09:38:53.016Z,969.74
2019-04-30T09:39:52.958Z,969.76
2019-04-30T09:40:52.899Z,969.74
2019-04-30T09:41:52.855Z,969.75
2019-04-30T09:42:52.844Z,969.73
2019-04-30T09:43:52.766Z,969.69
2019-04-30T09:44:54.846Z,969.63
2019-04-30T09:45:52.670Z,969.65
2019-04-30T09:46:52.628Z,969.66
2019-04-30T09:47:52.623Z,969.67
2019-04-30T09:48:52.543Z,969.71
2019-04-30T09:49:52.490Z,969.68
2019-04-30T09:50:52.776Z,969.70
2019-04-30T09:51:52.611Z,969.68
2019-04-30T09:52:52.479Z,969.67
2019-04-30T09:53:58.678Z,969.70
2019-04-30T09:54:52.612Z,969.66
2019-04-30T09:55:52.219Z,969.63
2019-04-30T09:56:52.757Z,969.65
2019-04-30T09:57:52.167Z,969.61
2019-04-30T09:58:52.084Z,969.63
2019-04-30T09:59:52.040Z,969.59
2019-04-30T10:00:51.996Z,969.62
2019-04-30T10:01:51.952Z,969.65
2019-04-30T10:02:51.938Z,969.65
2019-04-30T10:03:52.248Z,969.64
2019-04-30T10:04:52.268Z,969.66
2019-04-30T10:05:51.801Z,969.62
2019-04-30T10:06:51.725Z,969.61
2019-04-30T10:07:51.678Z,969.60
2019-04-30T10:08:51.634Z,969.65
2019-04-30T10:09:51.589Z,969.63
2019-04-30T10:10:51.585Z,969.62
2019-04-30T10:11:51.507Z,969.60
2019-04-30T10:12:51.457Z,969.61
2019-04-30T10:13:51.411Z,969.59
2019-04-30T10:14:51.428Z,969.55
2019-04-30T10:15:51.357Z,969.56
2019-04-30T10:16:51.277Z,969.57
2019-04-30T10:17:51.237Z,969.58
2019-04-30T10:18:51.190Z,969.62
2019-04-30T10:19:51.145Z,969.56
2019-04-30T10:20:51.132Z,969.55
2019-04-30T10:21:51.063Z,969.60
2019-04-30T10:22:51.049Z,969.59
2019-04-30T10:23:50.968Z,969.53
2019-04-30T10:24:50.924Z,969.55
2019-04-30T10:25:50.886Z,969.60
2019-04-30T10:26:50.843Z,969.62
2019-04-30T10:27:50.837Z,969.56
2019-04-30T10:28:50.752Z,969.51
2019-04-30T10:29:50.708Z,969.55
2019-04-30T10:30:50.694Z,969.56
2019-04-30T10:31:50.619Z,969.54
2019-04-30T10:32:50.621Z,969.64
2019-04-30T10:33:50.531Z,969.57
2019-04-30T10:34:50.486Z,969.58
2019-04-30T10:35:50.442Z,969.56
2019-04-30T10:36:50.399Z,969.58
2019-04-30T10:37:50.406Z,969.61
2019-04-30T10:38:50.314Z,969.56
2019-04-30T10:39:50.274Z,969.55
2019-04-30T10:40:50.236Z,969.49
2019-04-30T10:41:50.181Z,969.57
2019-04-30T10:42:50.186Z,969.53
2019-04-30T10:43:50.094Z,969.57
2019-04-30T10:44:50.050Z,969.55
2019-04-30T10:45:50.007Z,969.53
2019-04-30T10:46:49.968Z,969.51
2019-04-30T10:47:49.949Z,969.46
2019-04-30T10:48:49.894Z,969.45
2019-04-30T10:49:49.835Z,969.45
2019-04-30T10:50:49.794Z,969.42
2019-04-30T10:51:49.777Z,969.48
2019-04-30T10:52:49.746Z,969.47
2019-04-30T10:53:50.913Z,969.52
2019-04-30T10:54:49.782Z,969.49
2019-04-30T10:55:49.575Z,969.50
2019-04-30T10:56:51.324Z,969.46
2019-04-30T10:57:49.623Z,969.43
2019-04-30T10:58:49.470Z,969.45
2019-04-30T10:59:49.406Z,969.43
2019-04-30T11:00:49.896Z,969.45
2019-04-30T11:01:49.390Z,969.46
2019-04-30T11:02:49.721Z,969.44
2019-04-30T11:03:49.232Z,969.42
2019-04-30T11:04:49.189Z,969.43
2019-04-30T11:05:49.146Z,969.42
2019-04-30T11:06:49.103Z,969.41
2019-04-30T11:07:49.569Z,969.46
2019-04-30T11:08:49.049Z,969.45
2019-04-30T11:09:49.397Z,969.46
2019-04-30T11:10:48.940Z,969.41
2019-04-30T11:11:49.718Z,969.39
2019-04-30T11:12:48.851Z,969.39
2019-04-30T11:13:48.804Z,969.40
2019-04-30T11:14:48.790Z,969.37
2019-04-30T11:15:49.248Z,969.36
2019-04-30T11:16:51.220Z,969.34
2019-04-30T11:17:49.616Z,969.38
2019-04-30T11:18:48.790Z,969.31
2019-04-30T11:19:49.281Z,969.36
2019-04-30T11:20:49.808Z,969.36
2019-04-30T11:21:48.643Z,969.39
2019-04-30T11:22:48.519Z,969.32
2019-04-30T11:23:49.466Z,969.32
2019-04-30T11:24:59.026Z,969.21
2019-04-30T11:25:50.768Z,969.28
2019-04-30T11:26:50.090Z,969.29
2019-04-30T11:27:50.670Z,969.25
2019-04-30T11:28:48.394Z,969.30
2019-04-30T11:29:49.460Z,969.26
2019-04-30T11:30:48.318Z,969.25
2019-04-30T11:31:48.273Z,969.19
2019-04-30T11:32:48.178Z,969.25
2019-04-30T11:33:48.266Z,969.17
2019-04-30T11:34:47.937Z,969.23
2019-04-30T11:35:52.828Z,969.23
2019-04-30T11:36:47.826Z,969.19
2019-04-30T11:37:47.817Z,969.20
2019-04-30T11:38:48.742Z,969.15
2019-04-30T11:39:47.733Z,969.17
2019-04-30T11:40:48.589Z,969.12
2019-04-30T11:41:47.614Z,969.12
2019-04-30T11:42:47.572Z,969.13
2019-04-30T11:43:49.536Z,969.12
2019-04-30T11:44:48.752Z,969.10
2019-04-30T11:45:47.445Z,969.08
2019-04-30T11:46:49.452Z,969.04
2019-04-30T11:47:53.323Z,969.06
2019-04-30T11:48:48.986Z,969.12
2019-04-30T11:49:47.277Z,969.10
2019-04-30T11:50:49.133Z,969.08
2019-04-30T11:51:47.191Z,969.09
2019-04-30T11:52:47.176Z,969.12
2019-04-30T11:53:48.938Z,969.07
2019-04-30T11:54:51.638Z,969.05
2019-04-30T11:55:49.043Z,969.06
2019-04-30T11:56:50.306Z,969.07
2019-04-30T11:57:46.939Z,969.09
2019-04-30T11:58:48.806Z,969.06
2019-04-30T11:59:46.860Z,969.07
2019-04-30T12:00:46.850Z,969.07
2019-04-30T12:01:46.776Z,969.06
2019-04-30T12:02:46.731Z,969.02
2019-04-30T12:03:46.718Z,969.05
2019-04-30T12:04:46.644Z,969.05
2019-04-30T12:05:46.629Z,969.00
2019-04-30T12:06:46.559Z,969.00
2019-04-30T12:07:48.325Z,968.97
2019-04-30T12:08:46.474Z,968.96
2019-04-30T12:09:48.388Z,968.96
2019-04-30T12:10:46.427Z,968.96
2019-04-30T12:11:46.349Z,969.02
2019-04-30T12:12:46.343Z,968.96
2019-04-30T12:13:46.267Z,969.00
2019-04-30T12:14:46.226Z,968.93
2019-04-30T12:15:46.181Z,969.00
2019-04-30T12:16:46.142Z,968.99
2019-04-30T12:17:46.137Z,968.98
2019-04-30T12:18:46.090Z,969.01
2019-04-30T12:19:46.016Z,969.00
2019-04-30T12:20:45.972Z,969.00
2019-04-30T12:21:45.931Z,968.99
2019-04-30T12:22:45.896Z,969.01
2019-04-30T12:23:45.879Z,968.97
2019-04-30T12:24:45.807Z,968.94
2019-04-30T12:25:45.797Z,968.93
2019-04-30T12:26:45.755Z,968.91
2019-04-30T12:27:45.681Z,968.93